Time;durP1;ratioP1;P1;durP2;ratioP2;P2;SDS_P1;SDS_P2;PMS_P1;PMS_P2;Temp;Humidity;BMP_temperature;BMP_pressure;BME280_temperature;BME280_humidity;BME280_pressure;Samples;Min_cycle;Max_cycle;Signal;HPM_P1;HPM_P2
2021/09/20 00:01:55;;;;;;;8.55;4.60;;;;;;;12.19;73.37;101494.06;4985787;28;20033;-70
2021/09/20 00:04:21;;;;;;;8.40;4.32;;;;;;;12.13;73.51;101503.28;4984738;28;20038;-70
2021/09/20 00:06:46;;;;;;;8.75;4.45;;;;;;;12.06;73.84;101494.44;5001020;28;20033;-71
2021/09/20 00:09:12;;;;;;;6.63;4.88;;;;;;;11.96;74.48;101497.13;5006888;28;20046;-70
2021/09/20 00:11:37;;;;;;;7.13;4.65;;;;;;;11.95;74.46;101498.06;4969578;28;20116;-70
2021/09/20 00:14:03;;;;;;;7.68;4.18;;;;;;;11.92;74.39;101489.75;4987922;28;20035;-70
2021/09/20 00:16:28;;;;;;;9.30;4.40;;;;;;;11.88;74.28;101497.00;4992005;28;20026;-70
2021/09/20 00:18:54;;;;;;;7.00;4.45;;;;;;;11.82;74.34;101498.41;5007654;28;20550;-70
2021/09/20 00:21:20;;;;;;;7.80;4.75;;;;;;;11.73;74.83;101496.66;5004307;28;20033;-70
2021/09/20 00:23:45;;;;;;;11.30;4.38;;;;;;;11.73;74.84;101498.47;5008764;28;20061;-70
2021/09/20 00:26:11;;;;;;;8.75;4.75;;;;;;;11.74;74.77;101503.53;5006958;28;20053;-70
2021/09/20 00:28:37;;;;;;;7.90;5.05;;;;;;;11.73;74.79;101506.25;4990203;28;20045;-70
2021/09/20 00:31:03;;;;;;;7.82;4.50;;;;;;;11.69;74.77;101501.34;4989029;28;20034;-70
2021/09/20 00:33:29;;;;;;;7.22;4.55;;;;;;;11.67;74.97;101507.66;4986623;28;20502;-70
2021/09/20 00:35:55;;;;;;;10.05;4.95;;;;;;;11.65;74.84;101509.59;4990572;28;20076;-70
2021/09/20 00:38:20;;;;;;;7.10;4.97;;;;;;;11.63;74.76;101509.72;4994221;28;20036;-70
2021/09/20 00:40:46;;;;;;;8.40;4.88;;;;;;;11.63;74.82;101508.91;4988323;28;20053;-70
2021/09/20 00:43:11;;;;;;;8.77;5.95;;;;;;;11.62;75.13;101512.47;4987733;28;20492;-70
2021/09/20 00:45:37;;;;;;;8.73;5.07;;;;;;;11.57;75.23;101510.31;4979840;28;20117;-70
2021/09/20 00:48:03;;;;;;;8.55;5.60;;;;;;;11.53;75.32;101513.31;4987305;28;20478;-70
2021/09/20 00:50:29;;;;;;;9.32;5.63;;;;;;;11.50;75.61;101514.44;4997022;28;20033;-70
2021/09/20 00:52:54;;;;;;;7.93;4.88;;;;;;;11.50;75.26;101509.25;5006288;28;20033;-70
2021/09/20 00:55:19;;;;;;;10.73;5.57;;;;;;;11.50;75.26;101506.66;4986237;28;20033;-70
2021/09/20 00:57:46;;;;;;;10.02;5.55;;;;;;;11.46;75.31;101508.72;5001844;28;20044;-70
2021/09/20 01:00:13;;;;;;;7.05;4.93;;;;;;;11.44;75.32;101502.03;5003507;28;20026;-70
2021/09/20 01:02:40;;;;;;;9.25;5.35;;;;;;;11.43;75.35;101508.19;4986574;28;20034;-70
2021/09/20 01:05:07;;;;;;;14.25;6.35;;;;;;;11.40;75.25;101511.91;5000859;28;20081;-70
2021/09/20 01:07:33;;;;;;;8.68;5.07;;;;;;;11.38;75.46;101510.41;5003638;28;20127;-71
2021/09/20 01:09:59;;;;;;;8.05;5.28;;;;;;;11.35;75.43;101508.09;5005192;28;20030;-70
2021/09/20 01:12:25;;;;;;;9.15;5.20;;;;;;;11.33;75.49;101515.22;4986528;28;20535;-70
2021/09/20 01:14:51;;;;;;;7.90;5.00;;;;;;;11.27;75.61;101519.19;4988856;28;20235;-70
2021/09/20 01:17:16;;;;;;;8.55;4.75;;;;;;;11.25;75.67;101519.34;4998409;28;20042;-70
2021/09/20 01:19:42;;;;;;;7.70;5.20;;;;;;;11.22;76.07;101514.41;5006675;28;20030;-70
2021/09/20 01:22:13;;;;;;;10.23;5.50;;;;;;;11.21;76.23;101514.59;5007739;28;20057;-70
2021/09/20 01:24:39;;;;;;;8.88;5.47;;;;;;;11.17;76.17;101519.25;5000414;28;20420;-70
2021/09/20 01:27:05;;;;;;;8.43;4.95;;;;;;;11.15;76.26;101523.75;4989962;28;20103;-70
2021/09/20 01:29:31;;;;;;;12.18;5.35;;;;;;;11.13;76.11;101522.25;4992803;28;20029;-70
2021/09/20 01:32:00;;;;;;;8.07;5.38;;;;;;;11.10;76.23;101518.97;4987567;28;20419;-70
2021/09/20 01:34:26;;;;;;;9.27;5.95;;;;;;;11.08;76.18;101520.91;4988175;28;20500;-70
2021/09/20 01:36:52;;;;;;;8.95;5.13;;;;;;;11.04;76.50;101523.94;4994848;28;20053;-70
2021/09/20 01:39:21;;;;;;;8.93;5.72;;;;;;;10.98;76.49;101507.16;4985155;28;20046;-70
2021/09/20 01:41:47;;;;;;;10.70;5.32;;;;;;;10.94;76.65;101513.56;5007625;28;20107;-70
2021/09/20 01:44:13;;;;;;;11.63;5.43;;;;;;;10.91;76.70;101511.25;5009111;28;20147;-71
2021/09/20 01:46:42;;;;;;;9.65;5.05;;;;;;;10.89;76.39;101510.59;4996754;28;20611;-70
2021/09/20 01:49:08;;;;;;;9.05;5.13;;;;;;;10.87;76.93;101513.31;4981088;28;20030;-70
2021/09/20 01:51:33;;;;;;;8.10;4.95;;;;;;;10.83;76.75;101514.56;4986107;28;20124;-70
2021/09/20 01:53:59;;;;;;;9.40;5.53;;;;;;;10.82;77.18;101512.91;4991765;28;20025;-70
2021/09/20 01:56:24;;;;;;;7.78;4.82;;;;;;;10.81;76.79;101513.03;5008283;28;20049;-70
2021/09/20 01:58:50;;;;;;;7.93;5.22;;;;;;;10.80;76.71;101516.63;4988694;28;20033;-70
2021/09/20 02:01:15;;;;;;;8.65;5.88;;;;;;;10.76;76.95;101513.47;4989827;28;20041;-70
2021/09/20 02:03:41;;;;;;;7.75;5.35;;;;;;;10.74;76.82;101517.16;5009202;28;20041;-70
2021/09/20 02:06:06;;;;;;;10.45;5.95;;;;;;;10.71;77.05;101518.25;5007400;28;20459;-70
2021/09/20 02:08:32;;;;;;;9.57;5.93;;;;;;;10.70;77.06;101517.44;4994908;28;20029;-70
2021/09/20 02:10:57;;;;;;;8.60;5.40;;;;;;;10.68;76.85;101524.56;5000432;28;20558;-70
2021/09/20 02:13:23;;;;;;;10.80;5.60;;;;;;;10.66;76.96;101518.69;5011524;28;20046;-70
2021/09/20 02:15:48;;;;;;;13.70;6.50;;;;;;;10.61;77.21;101513.09;4994655;28;20037;-70
2021/09/20 02:18:14;;;;;;;10.77;5.47;;;;;;;10.58;77.52;101512.53;5007250;28;20369;-70
2021/09/20 02:20:39;;;;;;;10.98;5.82;;;;;;;10.49;77.54;101511.59;4993039;28;20518;-70
2021/09/20 02:23:05;;;;;;;8.65;5.57;;;;;;;10.43;77.74;101510.38;5004632;28;20041;-70
2021/09/20 02:25:30;;;;;;;12.07;6.00;;;;;;;10.42;78.07;101523.50;5008956;28;20333;-70
2021/09/20 02:27:55;;;;;;;11.10;6.38;;;;;;;10.39;78.34;101510.78;4998087;28;20107;-70
2021/09/20 02:30:21;;;;;;;9.40;6.15;;;;;;;10.37;78.24;101510.13;4977042;28;20049;-70
2021/09/20 02:32:47;;;;;;;8.32;5.85;;;;;;;10.35;78.38;101506.84;4991927;28;20091;-70
2021/09/20 02:35:13;;;;;;;8.95;6.38;;;;;;;10.32;78.17;101506.16;4967295;28;20030;-70
2021/09/20 02:37:39;;;;;;;11.48;6.82;;;;;;;10.27;78.23;101505.72;5005978;28;20034;-70
2021/09/20 02:40:10;;;;;;;11.63;6.65;;;;;;;10.24;78.33;101512.94;4988327;28;20026;-70
2021/09/20 02:42:36;;;;;;;10.32;6.43;;;;;;;10.16;78.34;101498.06;5007299;28;20426;-70
2021/09/20 02:45:03;;;;;;;11.65;7.00;;;;;;;10.13;78.08;101503.53;5007780;28;20034;-70
2021/09/20 02:47:29;;;;;;;12.60;6.72;;;;;;;10.07;78.57;101511.84;4988548;28;20543;-70
2021/09/20 02:49:54;;;;;;;14.73;6.97;;;;;;;10.02;78.80;101521.78;4982017;28;20066;-70
2021/09/20 02:52:19;;;;;;;11.55;7.45;;;;;;;10.00;79.16;101521.94;5006433;28;20526;-71
2021/09/20 02:54:45;;;;;;;15.75;7.18;;;;;;;10.01;79.37;101513.19;4990315;28;20043;-70
2021/09/20 02:57:10;;;;;;;9.10;6.10;;;;;;;10.03;79.33;101523.44;5008040;28;20030;-70
2021/09/20 02:59:36;;;;;;;11.73;7.00;;;;;;;10.03;79.33;101526.03;4997964;28;20037;-70
2021/09/20 03:02:01;;;;;;;13.43;7.18;;;;;;;10.05;79.58;101526.72;4976212;28;20061;-70
2021/09/20 03:04:27;;;;;;;10.48;6.43;;;;;;;10.04;79.37;101520.72;4991686;28;20041;-70
2021/09/20 03:06:52;;;;;;;11.27;6.78;;;;;;;10.06;79.28;101528.38;4979924;28;20033;-70
2021/09/20 03:09:18;;;;;;;14.18;7.13;;;;;;;10.04;79.08;101528.50;5005357;28;20037;-70
2021/09/20 03:11:43;;;;;;;11.68;6.10;;;;;;;10.04;79.23;101530.25;5012323;28;20040;-70
2021/09/20 03:14:09;;;;;;;11.23;6.70;;;;;;;10.05;79.08;101529.31;4986735;28;20554;-70
2021/09/20 03:16:35;;;;;;;13.10;7.18;;;;;;;10.05;79.30;101527.53;5010386;28;20229;-70
2021/09/20 03:19:00;;;;;;;11.55;6.60;;;;;;;10.04;78.83;101530.25;4984909;28;20033;-70
2021/09/20 03:21:26;;;;;;;9.55;6.95;;;;;;;9.99;79.15;101529.84;4974242;28;20033;-70
2021/09/20 03:23:52;;;;;;;11.38;7.07;;;;;;;9.97;79.28;101535.16;4981464;28;20435;-70
2021/09/20 03:26:17;;;;;;;10.85;7.07;;;;;;;9.93;79.47;101529.44;4994239;28;20484;-70
2021/09/20 03:28:43;;;;;;;11.18;7.22;;;;;;;9.95;79.39;101534.47;5013744;28;20044;-69
2021/09/20 03:31:09;;;;;;;11.32;6.75;;;;;;;9.96;79.11;101533.50;5010659;28;20030;-70
2021/09/20 03:33:35;;;;;;;9.55;6.43;;;;;;;9.96;78.69;101541.28;5017463;28;20038;-70
2021/09/20 03:36:01;;;;;;;10.38;6.50;;;;;;;9.98;78.66;101544.56;4994809;28;20057;-70
2021/09/20 03:38:26;;;;;;;11.02;6.45;;;;;;;9.98;78.37;101544.56;4974959;28;20025;-70
2021/09/20 03:40:52;;;;;;;10.23;6.55;;;;;;;9.96;78.46;101546.47;5028638;23;20072;-68
2021/09/20 03:43:17;;;;;;;9.98;6.70;;;;;;;9.92;78.75;101548.50;5025915;28;20034;-68
2021/09/20 03:45:43;;;;;;;11.32;7.22;;;;;;;9.90;79.05;101554.78;5028286;28;20029;-67
2021/09/20 03:48:08;;;;;;;11.85;6.72;;;;;;;9.87;78.95;101548.09;5011252;28;20048;-68
2021/09/20 03:50:34;;;;;;;10.77;6.43;;;;;;;9.88;79.19;101559.28;5028105;28;20647;-68
2021/09/20 03:52:59;;;;;;;12.40;7.35;;;;;;;9.83;79.42;101551.91;5010045;28;20398;-68
2021/09/20 03:55:25;;;;;;;14.15;6.30;;;;;;;9.83;79.26;101559.69;5013411;28;20029;-68
2021/09/20 03:57:51;;;;;;;17.20;7.63;;;;;;;9.80;79.15;101559.13;4998306;28;20104;-68
2021/09/20 04:00:16;;;;;;;10.73;6.55;;;;;;;9.79;79.21;101554.88;5013958;28;20044;-67
2021/09/20 04:02:42;;;;;;;12.60;7.05;;;;;;;9.75;79.13;101562.91;5011367;28;20025;-68
2021/09/20 04:05:08;;;;;;;15.25;6.55;;;;;;;9.72;79.54;101563.19;5026743;28;20542;-68
2021/09/20 04:07:40;;;;;;;14.13;6.90;;;;;;;9.68;79.57;101567.00;5026721;28;20036;-68
2021/09/20 04:10:07;;;;;;;13.60;7.90;;;;;;;9.65;79.82;101562.06;5023409;28;20043;-67
2021/09/20 04:12:33;;;;;;;11.77;6.55;;;;;;;9.64;79.65;101569.97;5019513;28;20044;-68
2021/09/20 04:14:58;;;;;;;9.98;6.60;;;;;;;9.63;79.51;101568.34;5032886;28;20095;-68
2021/09/20 04:17:23;;;;;;;11.90;6.45;;;;;;;9.62;79.73;101564.91;5018900;28;20036;-68
2021/09/20 04:19:49;;;;;;;10.25;6.47;;;;;;;9.63;79.42;101568.34;5027439;28;20383;-68
2021/09/20 04:22:14;;;;;;;10.65;6.30;;;;;;;9.61;79.56;101565.06;5033880;28;20445;-68
2021/09/20 04:24:40;;;;;;;11.45;6.75;;;;;;;9.61;79.27;101568.47;5021553;28;20495;-68
2021/09/20 04:27:05;;;;;;;11.18;6.38;;;;;;;9.54;79.65;101570.75;4994286;28;20041;-68
2021/09/20 04:29:31;;;;;;;12.52;6.43;;;;;;;9.52;79.63;101569.25;5009250;28;20052;-68
2021/09/20 04:31:58;;;;;;;11.93;6.95;;;;;;;9.49;79.70;101578.09;5022556;28;20036;-68
2021/09/20 04:34:24;;;;;;;12.10;6.97;;;;;;;9.45;79.87;101575.88;5015312;28;20021;-68
2021/09/20 04:36:50;;;;;;;10.10;6.32;;;;;;;9.44;79.99;101577.66;5024715;28;20041;-67
2021/09/20 04:39:16;;;;;;;11.75;7.10;;;;;;;9.43;80.00;101578.59;5024923;28;20272;-68
2021/09/20 04:41:41;;;;;;;13.85;7.60;;;;;;;9.42;79.93;101581.31;5009711;28;20045;-67
2021/09/20 04:44:08;;;;;;;12.30;7.05;;;;;;;9.39;80.01;101589.34;5008593;28;20072;-68
2021/09/20 04:46:33;;;;;;;11.60;6.85;;;;;;;9.34;79.77;101587.97;5020187;28;20037;-67
2021/09/20 04:48:59;;;;;;;15.32;7.63;;;;;;;9.33;80.17;101593.28;5024466;28;20037;-68
2021/09/20 04:51:24;;;;;;;10.70;7.03;;;;;;;9.29;80.13;101584.94;5005719;28;20430;-68
2021/09/20 04:53:50;;;;;;;13.00;6.88;;;;;;;9.29;79.93;101597.88;5015123;28;20141;-68
2021/09/20 04:56:16;;;;;;;13.88;6.93;;;;;;;9.27;79.92;101596.38;4993612;28;20061;-68
2021/09/20 04:58:42;;;;;;;12.48;7.65;;;;;;;9.26;80.03;101592.13;5024840;28;20387;-68
2021/09/20 05:01:08;;;;;;;11.82;6.40;;;;;;;9.24;80.06;101600.03;5012056;28;20029;-68
2021/09/20 05:03:33;;;;;;;12.38;6.57;;;;;;;9.22;80.15;101595.94;5026534;28;20025;-68
2021/09/20 05:05:59;;;;;;;10.73;7.05;;;;;;;9.22;80.16;101599.34;5007443;28;20018;-68
2021/09/20 05:08:24;;;;;;;14.20;8.63;;;;;;;9.21;80.15;101602.03;5007436;28;20498;-68
2021/09/20 05:10:50;;;;;;;11.57;6.97;;;;;;;9.20;80.34;101600.41;5025444;28;20036;-68
2021/09/20 05:13:15;;;;;;;12.38;7.18;;;;;;;9.19;80.43;101602.16;5009661;28;20115;-68
2021/09/20 05:15:41;;;;;;;11.73;7.20;;;;;;;9.18;80.42;101603.13;5008077;28;20041;-68
2021/09/20 05:18:06;;;;;;;13.73;6.38;;;;;;;9.13;80.57;101603.50;5003932;28;20037;-68
2021/09/20 05:20:32;;;;;;;11.77;7.28;;;;;;;9.16;80.58;101607.63;4997721;28;20033;-67
2021/09/20 05:22:58;;;;;;;12.38;6.63;;;;;;;9.16;80.34;101610.22;5025313;28;20068;-68
2021/09/20 05:25:23;;;;;;;11.07;6.93;;;;;;;9.15;80.45;101611.13;5026247;28;20026;-68
2021/09/20 05:27:51;;;;;;;12.40;7.18;;;;;;;9.15;80.54;101608.56;5024310;28;20056;-68
2021/09/20 05:30:17;;;;;;;11.57;6.82;;;;;;;9.16;80.55;101610.22;5008652;28;20041;-68
2021/09/20 05:32:43;;;;;;;13.57;7.15;;;;;;;9.14;80.63;101612.91;5023172;28;20048;-68
2021/09/20 05:35:09;;;;;;;13.02;7.85;;;;;;;9.14;80.51;101612.09;5010180;28;20045;-68
2021/09/20 05:37:35;;;;;;;12.73;7.32;;;;;;;9.13;80.74;101615.63;5023542;28;20143;-68
2021/09/20 05:40:00;;;;;;;12.60;7.40;;;;;;;9.15;80.89;101611.13;5009339;28;20025;-68
2021/09/20 05:42:26;;;;;;;13.48;7.45;;;;;;;9.16;80.86;101613.59;5031233;28;20124;-68
2021/09/20 05:44:52;;;;;;;11.75;7.22;;;;;;;9.19;80.65;101611.72;5027925;28;20124;-68
2021/09/20 05:47:17;;;;;;;12.85;7.47;;;;;;;9.20;80.78;101615.94;5021344;28;20041;-68
2021/09/20 05:49:43;;;;;;;15.75;8.02;;;;;;;9.21;80.94;101614.97;5031710;28;20380;-68
2021/09/20 05:52:08;;;;;;;12.95;7.22;;;;;;;9.21;80.98;101607.22;5012580;28;20045;-68
2021/09/20 05:54:34;;;;;;;12.70;7.82;;;;;;;9.25;81.09;101616.38;5020505;28;20415;-68
2021/09/20 05:57:00;;;;;;;13.68;8.45;;;;;;;9.26;81.22;101611.06;5031643;28;20063;-68
2021/09/20 05:59:26;;;;;;;13.05;7.47;;;;;;;9.29;81.34;101615.19;5019918;28;20037;-68
2021/09/20 06:01:52;;;;;;;12.60;7.00;;;;;;;9.29;81.30;101622.97;5001139;28;20041;-68
2021/09/20 06:04:18;;;;;;;14.30;7.38;;;;;;;9.33;81.37;101622.56;5031586;28;20037;-68
2021/09/20 06:06:44;;;;;;;16.10;8.10;;;;;;;9.38;81.34;101627.38;5008206;28;20029;-68
2021/09/20 06:09:09;;;;;;;15.63;7.78;;;;;;;9.40;81.18;101630.66;5012381;28;20049;-68
2021/09/20 06:11:35;;;;;;;10.77;7.55;;;;;;;9.45;81.25;101632.84;5031321;28;20033;-68
2021/09/20 06:14:00;;;;;;;13.10;8.00;;;;;;;9.49;81.40;101631.63;5014881;28;20038;-68
2021/09/20 06:16:26;;;;;;;13.20;7.47;;;;;;;9.52;81.63;101636.56;5013327;28;20030;-68
2021/09/20 06:18:51;;;;;;;14.70;7.53;;;;;;;9.57;81.48;101636.16;5012111;28;20037;-68
2021/09/20 06:21:17;;;;;;;14.45;8.23;;;;;;;9.62;81.20;101637.41;5017653;28;20041;-68
2021/09/20 06:23:42;;;;;;;13.43;8.02;;;;;;;9.66;81.58;101638.81;5018278;28;20037;-69
2021/09/20 06:26:08;;;;;;;12.55;8.18;;;;;;;9.74;81.61;101636.38;5020830;28;20314;-68
2021/09/20 06:28:33;;;;;;;13.38;8.10;;;;;;;9.82;81.53;101640.09;5024996;28;20045;-68
2021/09/20 06:31:02;;;;;;;14.82;8.02;;;;;;;9.88;81.69;101637.81;5017238;28;20523;-68
2021/09/20 06:33:30;;;;;;;20.13;9.43;;;;;;;10.04;81.25;101647.69;5025653;28;20092;-68
2021/09/20 06:35:57;;;;;;;18.85;9.05;;;;;;;10.42;80.39;101637.56;5013991;28;20029;-68
2021/09/20 06:38:22;;;;;;;14.48;8.90;;;;;;;11.04;78.79;101638.94;5029357;28;20033;-68
2021/09/20 06:40:48;;;;;;;13.35;8.48;;;;;;;11.78;76.88;101637.38;5014449;28;20441;-68
2021/09/20 06:43:13;;;;;;;16.70;9.40;;;;;;;12.30;74.57;101636.03;5011891;28;20045;-68
2021/09/20 06:45:39;;;;;;;16.77;9.18;;;;;;;12.62;72.75;101641.56;5024613;28;20025;-68
2021/09/20 06:48:04;;;;;;;15.88;8.02;;;;;;;12.55;71.95;101648.31;5025960;28;20037;-68
2021/09/20 06:50:30;;;;;;;11.90;7.80;;;;;;;12.35;72.49;101645.03;5005677;28;20037;-67
2021/09/20 06:52:55;;;;;;;16.85;8.70;;;;;;;12.42;72.14;101647.88;5016686;28;20546;-68
2021/09/20 06:55:21;;;;;;;12.30;8.20;;;;;;;12.34;72.22;101648.59;5028721;28;20071;-67
2021/09/20 06:57:46;;;;;;;16.80;8.30;;;;;;;12.25;72.77;101650.28;5027812;28;20037;-68
2021/09/20 07:00:14;;;;;;;17.38;10.88;;;;;;;12.05;73.34;101651.34;5008306;28;20021;-68
2021/09/20 07:02:39;;;;;;;24.35;12.10;;;;;;;11.72;74.30;101655.31;5035942;28;20041;-68
2021/09/20 07:05:06;;;;;;;16.27;9.65;;;;;;;11.85;74.36;101650.63;5008787;28;20082;-68
2021/09/20 07:07:32;;;;;;;22.58;9.52;;;;;;;11.77;74.63;101651.34;4980833;28;20278;-68
2021/09/20 07:09:57;;;;;;;14.52;8.55;;;;;;;12.27;73.58;101655.34;5019027;28;20044;-68
2021/09/20 07:12:23;;;;;;;15.63;8.48;;;;;;;12.51;72.41;101653.94;5029488;28;20625;-68
2021/09/20 07:14:49;;;;;;;12.85;8.10;;;;;;;12.41;72.27;101660.06;5028418;28;20471;-68
2021/09/20 07:17:14;;;;;;;16.23;8.60;;;;;;;12.75;71.48;101663.78;5019412;28;20056;-68
2021/09/20 07:19:40;;;;;;;14.75;8.35;;;;;;;12.65;72.27;101661.25;5020569;28;20025;-68
2021/09/20 07:22:05;;;;;;;14.50;8.57;;;;;;;12.62;72.57;101664.13;5008299;28;20030;-68
2021/09/20 07:24:31;;;;;;;16.48;9.48;;;;;;;12.64;72.20;101670.84;4997086;28;20522;-68
2021/09/20 07:26:56;;;;;;;13.30;9.07;;;;;;;12.74;72.97;101669.97;4993739;28;20490;-68
2021/09/20 07:29:22;;;;;;;16.63;9.68;;;;;;;12.70;71.61;101666.84;5009663;28;20048;-68
2021/09/20 07:31:47;;;;;;;13.52;8.98;;;;;;;12.96;70.85;101664.28;5011433;28;20025;-68
2021/09/20 07:34:14;;;;;;;17.02;8.40;;;;;;;13.59;69.63;101670.28;5024389;28;20048;-68
2021/09/20 07:36:39;;;;;;;18.88;9.43;;;;;;;13.82;69.33;101671.38;5006277;28;20033;-68
2021/09/20 07:39:05;;;;;;;16.35;9.05;;;;;;;14.27;67.80;101674.63;5027749;28;20064;-68
2021/09/20 07:41:31;;;;;;;13.00;8.30;;;;;;;15.09;65.86;101668.72;5012482;28;20052;-68
2021/09/20 07:43:57;;;;;;;13.35;8.70;;;;;;;14.95;64.99;101667.56;5026447;28;20029;-68
2021/09/20 07:46:23;;;;;;;16.00;8.73;;;;;;;15.17;65.82;101673.91;5030949;28;20029;-68
2021/09/20 07:48:50;;;;;;;12.30;7.95;;;;;;;15.17;64.46;101676.53;5008879;28;20091;-70
2021/09/20 07:51:16;;;;;;;16.10;9.10;;;;;;;15.01;65.08;101668.69;5010786;28;20095;-68
2021/09/20 07:53:42;;;;;;;16.13;8.45;;;;;;;15.02;64.66;101675.56;5027525;28;20483;-68
2021/09/20 07:56:07;;;;;;;14.57;9.38;;;;;;;14.47;65.58;101683.00;5027762;28;20025;-68
2021/09/20 07:58:33;;;;;;;13.70;7.88;;;;;;;14.33;66.90;101673.16;5007863;28;20395;-68
2021/09/20 08:00:59;;;;;;;16.67;9.02;;;;;;;14.27;66.91;101681.63;5000272;28;20054;-68
2021/09/20 08:03:26;;;;;;;14.20;9.02;;;;;;;14.93;64.55;101674.75;5009801;28;20065;-69
2021/09/20 08:05:52;;;;;;;14.75;8.77;;;;;;;15.28;64.51;101681.41;5008297;28;20045;-68
2021/09/20 08:08:18;;;;;;;14.70;8.43;;;;;;;15.95;63.59;101678.50;5024801;28;20042;-68
2021/09/20 08:10:43;;;;;;;18.15;9.02;;;;;;;16.47;62.04;101674.44;5025598;28;20072;-68
2021/09/20 08:13:09;;;;;;;12.57;7.82;;;;;;;16.94;60.34;101675.28;5007345;28;20411;-68
2021/09/20 08:15:35;;;;;;;11.57;7.43;;;;;;;17.18;58.58;101682.13;5034266;28;20064;-68
2021/09/20 08:18:01;;;;;;;13.85;7.97;;;;;;;17.46;57.39;101682.31;5024043;28;20029;-68
2021/09/20 08:20:27;;;;;;;13.05;7.70;;;;;;;17.84;55.16;101686.66;5026801;28;20041;-68
2021/09/20 08:22:52;;;;;;;13.65;8.63;;;;;;;17.84;54.19;101689.28;5026338;28;20492;-69
2021/09/20 08:25:23;;;;;;;12.38;7.50;;;;;;;18.22;53.81;101686.53;5027221;28;20087;-69
2021/09/20 08:27:49;;;;;;;12.95;7.63;;;;;;;18.69;53.41;101695.69;5022011;28;20048;-68
2021/09/20 08:30:17;;;;;;;13.18;8.15;;;;;;;19.14;51.51;101685.78;5017604;28;20071;-69
2021/09/20 08:32:43;;;;;;;14.07;7.47;;;;;;;18.92;52.16;101687.63;5005288;28;20991;-68
2021/09/20 08:35:09;;;;;;;10.65;6.78;;;;;;;18.80;52.60;101692.59;5028670;28;20030;-68
2021/09/20 08:37:34;;;;;;;11.35;7.60;;;;;;;18.66;52.83;101699.47;5009040;28;20447;-69
2021/09/20 08:40:00;;;;;;;12.38;7.28;;;;;;;18.76;50.91;101699.19;5010597;28;20411;-69
2021/09/20 08:42:25;;;;;;;12.95;7.63;;;;;;;18.65;52.26;101695.25;5024926;28;20036;-69
2021/09/20 08:44:51;;;;;;;11.68;6.88;;;;;;;19.21;51.59;101697.16;5029619;28;20079;-69
2021/09/20 08:47:18;;;;;;;14.27;7.38;;;;;;;19.03;49.99;101695.00;5021354;28;20032;-70
2021/09/20 08:49:45;;;;;;;11.73;6.85;;;;;;;18.09;52.05;101695.06;5028546;28;20041;-69
2021/09/20 08:52:11;;;;;;;11.38;7.22;;;;;;;17.75;54.29;101706.09;5007209;28;20044;-68
2021/09/20 08:54:37;;;;;;;12.93;7.65;;;;;;;18.13;54.04;101712.06;5028620;28;20033;-69
2021/09/20 08:57:03;;;;;;;10.50;7.20;;;;;;;18.45;52.86;101715.25;5022754;28;20038;-69
2021/09/20 08:59:29;;;;;;;12.23;7.07;;;;;;;18.64;52.08;101714.63;5025984;28;20041;-69
2021/09/20 09:01:55;;;;;;;11.82;6.70;;;;;;;18.58;52.26;101711.94;5007527;28;20044;-68
2021/09/20 09:04:24;;;;;;;10.60;7.22;;;;;;;18.75;50.65;101712.50;5010205;28;20030;-68
2021/09/20 09:07:06;;;;;;;11.60;6.90;;;;;;;18.76;51.82;101714.97;5022863;28;20376;-70
2021/09/20 09:09:43;;;;;;;12.35;7.05;;;;;;;19.30;50.45;101720.66;5025509;28;20936;-69
2021/09/20 09:12:21;;;;;;;13.63;7.63;;;;;;;19.49;48.82;101719.97;5006872;28;20468;-69
2021/09/20 09:14:55;;;;;;;10.73;6.90;;;;;;;19.00;50.40;101729.53;5030563;28;20459;-69
2021/09/20 09:17:32;;;;;;;8.90;6.47;;;;;;;18.47;51.42;101735.06;5006639;28;20069;-69
2021/09/20 09:20:33;;;;;;;11.95;7.53;;;;;;;18.63;51.67;101725.34;5008813;28;20041;-69
2021/09/20 09:23:03;;;;;;;9.77;6.82;;;;;;;18.61;51.68;101725.53;5007084;28;20042;-68
2021/09/20 09:25:37;;;;;;;14.18;7.82;;;;;;;18.27;51.93;101734.00;5023561;28;20420;-69
2021/09/20 09:28:18;;;;;;;19.42;8.40;;;;;;;18.40;51.05;101739.44;5025836;28;20072;-69
2021/09/20 09:31:00;;;;;;;11.77;7.10;;;;;;;17.98;51.93;101743.56;5017356;28;20037;-69
2021/09/20 09:33:37;;;;;;;10.70;6.85;;;;;;;17.81;54.61;101744.72;5020784;28;20506;-70
2021/09/20 09:36:03;;;;;;;9.05;6.07;;;;;;;17.99;53.57;101747.00;5007218;28;20515;-69
2021/09/20 09:38:28;;;;;;;8.52;6.22;;;;;;;17.97;52.96;101743.75;5011265;28;20026;-69
2021/09/20 09:40:57;;;;;;;9.00;5.75;;;;;;;17.98;54.56;101748.81;5016802;28;20044;-69
2021/09/20 09:43:31;;;;;;;10.60;6.70;;;;;;;17.78;51.99;101755.56;5006819;28;20048;-69
2021/09/20 09:45:59;;;;;;;10.65;6.07;;;;;;;17.96;53.67;101752.63;5024918;28;20045;-69
2021/09/20 09:48:28;;;;;;;9.15;5.55;;;;;;;18.12;53.04;101754.22;5008428;28;20500;-69
2021/09/20 09:50:57;;;;;;;9.75;6.22;;;;;;;18.16;51.22;101758.09;5025722;28;20030;-69
2021/09/20 09:53:37;;;;;;;11.15;5.60;;;;;;;18.52;51.07;101752.09;5007436;28;20125;-68
2021/09/20 09:56:18;;;;;;;8.93;5.70;;;;;;;18.76;50.97;101753.53;5006754;28;20060;-69
2021/09/20 09:58:58;;;;;;;8.48;6.03;;;;;;;18.17;50.75;101755.31;5009367;28;20033;-69
2021/09/20 10:01:33;;;;;;;14.65;6.30;;;;;;;18.07;52.06;101757.41;5021403;28;20025;-69
2021/09/20 10:04:15;;;;;;;8.02;5.50;;;;;;;18.07;52.49;101762.66;5010305;28;20048;-68
2021/09/20 10:06:40;;;;;;;8.05;5.68;;;;;;;18.34;52.81;101758.53;5021562;28;20048;-69
2021/09/20 10:09:07;;;;;;;8.55;4.85;;;;;;;18.40;51.67;101760.44;5026847;28;20120;-69
2021/09/20 10:11:34;;;;;;;11.00;5.65;;;;;;;18.60;50.28;101752.78;5006817;28;20488;-68
2021/09/20 10:14:00;;;;;;;7.07;5.47;;;;;;;18.42;51.38;101758.44;5024455;28;20597;-68
2021/09/20 10:16:27;;;;;;;8.40;6.00;;;;;;;18.24;50.38;101758.03;5009650;28;20394;-69
2021/09/20 10:18:53;;;;;;;7.20;4.57;;;;;;;17.99;50.60;101765.34;5006945;28;20442;-69
2021/09/20 10:21:19;;;;;;;8.43;4.95;;;;;;;18.01;51.67;101763.41;5012552;28;20033;-71
2021/09/20 10:23:44;;;;;;;7.38;4.90;;;;;;;18.07;52.15;101758.22;5007385;28;20033;-68
2021/09/20 10:26:10;;;;;;;7.32;5.03;;;;;;;18.08;50.90;101765.09;5025875;28;20172;-68
2021/09/20 10:28:36;;;;;;;7.60;4.90;;;;;;;18.05;50.13;101757.59;5004134;28;20491;-69
2021/09/20 10:31:01;;;;;;;7.05;5.10;;;;;;;17.70;52.63;101764.34;5030677;28;20045;-68
2021/09/20 10:33:27;;;;;;;8.98;4.70;;;;;;;17.73;52.76;101758.75;5005896;28;20045;-68
2021/09/20 10:35:55;;;;;;;11.07;5.50;;;;;;;17.67;52.32;101762.09;5012994;28;20538;-68
2021/09/20 10:38:20;;;;;;;12.63;6.60;;;;;;;17.62;51.78;101762.59;5020215;28;20056;-68
2021/09/20 10:41:04;;;;;;;8.30;5.60;;;;;;;17.59;52.99;101762.97;5012440;28;20131;-69
2021/09/20 10:43:29;;;;;;;9.52;5.88;;;;;;;17.58;52.64;101766.59;5011107;28;20041;-68
2021/09/20 10:45:55;;;;;;;5.75;4.75;;;;;;;17.73;52.48;101769.22;5011205;28;20034;-68
2021/09/20 10:48:27;;;;;;;7.28;5.53;;;;;;;17.66;52.39;101760.44;5009611;28;20056;-69
2021/09/20 10:50:57;;;;;;;9.60;5.65;;;;;;;17.94;51.36;101765.13;5018127;28;20037;-68
2021/09/20 10:53:34;;;;;;;10.02;5.68;;;;;;;18.05;51.74;101762.03;5011578;28;20033;-68
2021/09/20 10:56:00;;;;;;;8.45;4.75;;;;;;;17.85;51.73;101773.06;5029901;28;20030;-68
2021/09/20 10:58:25;;;;;;;10.52;4.57;;;;;;;17.95;51.51;101767.56;5006682;28;20113;-68
2021/09/20 11:01:11;;;;;;;6.82;4.80;;;;;;;18.09;52.04;101764.09;4997901;28;20258;-68
2021/09/20 11:03:53;;;;;;;6.40;4.97;;;;;;;17.98;50.99;101772.44;5029569;28;20037;-68
2021/09/20 11:06:22;;;;;;;8.18;4.95;;;;;;;17.86;49.78;101772.06;5013541;28;20045;-68
2021/09/20 11:08:57;;;;;;;8.75;4.90;;;;;;;17.89;51.91;101766.47;5011299;28;20052;-68
2021/09/20 11:11:41;;;;;;;7.28;4.93;;;;;;;17.96;52.93;101769.16;5012964;28;20048;-68
2021/09/20 11:14:15;;;;;;;6.80;4.80;;;;;;;18.16;52.06;101772.06;5024622;28;20430;-68
2021/09/20 11:16:51;;;;;;;6.43;4.57;;;;;;;17.84;50.59;101766.19;5030738;28;20048;-68
2021/09/20 11:19:29;;;;;;;5.68;4.07;;;;;;;17.83;51.83;101772.38;5024865;28;20037;-68
2021/09/20 11:22:13;;;;;;;6.63;4.45;;;;;;;17.93;51.39;101769.53;5016594;28;20518;-68